Time;durP1;ratioP1;P1;durP2;ratioP2;P2;SDS_P1;SDS_P2;PMS_P1;PMS_P2;Temp;Humidity;BMP_temperature;BMP_pressure;BME280_temperature;BME280_humidity;BME280_pressure;Samples;Min_cycle;Max_cycle;Signal;HPM_P1;HPM_P2
2021/08/15 00:02:15;;;;;;;20.57;6.70;;;;;;;16.04;100.00;101216.47;2618287;47;20454;-46
2021/08/15 00:04:48;;;;;;;23.20;9.33;;;;;;;16.01;100.00;101218.97;2618221;39;20575;-48
2021/08/15 00:07:18;;;;;;;16.03;6.33;;;;;;;15.88;100.00;101222.06;2618826;47;20894;-46
2021/08/15 00:09:48;;;;;;;23.73;7.67;;;;;;;15.88;100.00;101214.25;2635521;36;20760;-47
2021/08/15 00:12:17;;;;;;;18.50;8.00;;;;;;;15.83;100.00;101221.94;2617753;47;20475;-46
2021/08/15 00:14:47;;;;;;;31.73;10.93;;;;;;;15.94;100.00;101222.25;2642639;36;20205;-46
2021/08/15 00:17:17;;;;;;;21.03;10.97;;;;;;;15.79;100.00;101213.16;2617650;47;20155;-47
2021/08/15 00:19:49;;;;;;;36.10;11.83;;;;;;;15.90;100.00;101205.66;2617326;46;20423;-45
2021/08/15 00:22:18;;;;;;;16.80;7.53;;;;;;;15.79;100.00;101196.66;2618974;47;20894;-47
2021/08/15 00:24:48;;;;;;;31.73;11.07;;;;;;;15.89;100.00;101192.63;2619066;36;20890;-47
2021/08/15 00:27:17;;;;;;;27.23;8.97;;;;;;;15.91;100.00;101197.00;2618962;46;20403;-51
2021/08/15 00:29:47;;;;;;;22.57;9.53;;;;;;;15.85;100.00;101193.38;2624945;36;20932;-47
2021/08/15 00:32:16;;;;;;;33.60;12.50;;;;;;;15.78;100.00;101188.00;2618990;47;20909;-46
2021/08/15 00:34:48;;;;;;;29.25;9.43;;;;;;;15.84;100.00;101191.59;2617848;39;20750;-47
2021/08/15 00:37:18;;;;;;;24.83;8.30;;;;;;;15.77;100.00;101193.16;2619107;39;20796;-47
2021/08/15 00:39:47;;;;;;;26.05;7.43;;;;;;;15.79;100.00;101181.94;2617340;46;20426;-48
2021/08/15 00:42:19;;;;;;;22.47;9.50;;;;;;;15.80;100.00;101186.31;2618073;47;20161;-45
2021/08/15 00:44:48;;;;;;;29.60;8.47;;;;;;;15.84;100.00;101194.22;2617425;46;20407;-46
2021/08/15 00:47:18;;;;;;;26.93;8.77;;;;;;;15.87;100.00;101189.06;2618992;46;20407;-47
2021/08/15 00:49:50;;;;;;;28.10;7.47;;;;;;;15.89;100.00;101192.63;2617964;47;21283;-49
2021/08/15 00:52:19;;;;;;;18.80;7.53;;;;;;;15.90;100.00;101183.97;2619006;47;20452;-48
2021/08/15 00:54:49;;;;;;;23.67;9.00;;;;;;;15.89;100.00;101179.59;2619064;39;20727;-50
2021/08/15 00:57:18;;;;;;;21.83;7.97;;;;;;;15.80;100.00;101188.03;2619038;46;20420;-46
2021/08/15 00:59:48;;;;;;;45.23;8.27;;;;;;;15.77;100.00;101187.94;2617515;46;20156;-49
2021/08/15 01:02:17;;;;;;;29.27;7.90;;;;;;;15.72;100.00;101180.03;2618983;47;20945;-49
2021/08/15 01:04:50;;;;;;;19.40;7.70;;;;;;;15.77;100.00;101183.63;2617615;46;20403;-46
2021/08/15 01:07:19;;;;;;;16.50;8.20;;;;;;;15.85;100.00;101180.34;2619368;39;20803;-47
2021/08/15 01:09:49;;;;;;;21.47;10.93;;;;;;;15.77;100.00;101178.44;2618146;39;20457;-45
2021/08/15 01:12:18;;;;;;;22.17;8.80;;;;;;;15.89;100.00;101166.59;2618171;46;20478;-49
2021/08/15 01:14:48;;;;;;;23.63;7.27;;;;;;;15.88;100.00;101170.00;2623606;36;20434;-48
2021/08/15 01:17:18;;;;;;;22.63;6.80;;;;;;;15.86;100.00;101163.91;2618651;46;20418;-48
2021/08/15 01:19:54;;;;;;;17.80;6.90;;;;;;;15.94;100.00;101154.59;2618279;46;20427;-49
2021/08/15 01:22:23;;;;;;;28.03;8.37;;;;;;;15.95;100.00;101153.78;2618883;46;20403;-48
2021/08/15 01:24:53;;;;;;;22.10;8.33;;;;;;;15.94;100.00;101167.59;2618750;46;20447;-49
2021/08/15 01:27:28;;;;;;;20.53;7.83;;;;;;;16.01;100.00;101161.72;2618581;47;20399;-46
2021/08/15 01:30:00;;;;;;;22.53;7.57;;;;;;;16.01;100.00;101161.72;2639100;36;20434;-46
2021/08/15 01:32:29;;;;;;;14.80;6.50;;;;;;;16.02;100.00;101160.91;2619686;46;20438;-48
2021/08/15 01:34:59;;;;;;;19.63;8.13;;;;;;;16.02;100.00;101154.81;2638388;36;20438;-47
2021/08/15 01:37:28;;;;;;;23.17;7.00;;;;;;;15.95;100.00;101164.19;2618729;47;20879;-47
2021/08/15 01:40:02;;;;;;;20.53;7.13;;;;;;;16.02;100.00;101158.31;2641392;36;20434;-45
2021/08/15 01:42:32;;;;;;;15.85;6.68;;;;;;;16.12;100.00;101145.50;2618392;46;20458;-46
2021/08/15 01:45:08;;;;;;;15.47;5.80;;;;;;;16.12;100.00;101148.09;2617947;46;20167;-47
2021/08/15 01:47:38;;;;;;;23.53;8.23;;;;;;;16.16;100.00;101152.56;2618417;47;20384;-47
2021/08/15 01:50:09;;;;;;;14.95;6.07;;;;;;;16.21;100.00;101143.16;2623243;36;20436;-46
2021/08/15 01:52:39;;;;;;;21.40;6.50;;;;;;;16.21;100.00;101130.13;2618700;46;20191;-47
2021/08/15 01:55:10;;;;;;;18.87;7.07;;;;;;;16.29;100.00;101130.28;2635946;36;20431;-45
2021/08/15 01:57:39;;;;;;;15.23;6.13;;;;;;;16.35;100.00;101125.25;2618176;46;20414;-47
2021/08/15 02:00:13;;;;;;;17.97;6.10;;;;;;;16.40;100.00;101118.41;2623424;36;20435;-47
2021/08/15 02:02:43;;;;;;;17.07;6.13;;;;;;;16.45;100.00;101106.41;2618484;46;20439;-49
2021/08/15 02:05:18;;;;;;;16.07;6.73;;;;;;;16.50;100.00;101106.50;2619303;36;20617;-49
2021/08/15 02:07:54;;;;;;;16.13;7.27;;;;;;;16.46;100.00;101107.28;2619702;47;20404;-49
2021/08/15 02:10:26;;;;;;;12.60;5.53;;;;;;;16.46;100.00;101102.94;2636576;36;20519;-47
2021/08/15 02:12:56;;;;;;;16.20;6.13;;;;;;;16.44;100.00;101101.13;2618362;54;20909;-47
2021/08/15 02:15:28;;;;;;;15.77;6.13;;;;;;;16.52;100.00;101107.44;2617463;46;20427;-48
2021/08/15 02:17:58;;;;;;;11.10;4.73;;;;;;;16.45;100.00;101115.91;2618496;47;20416;-46
2021/08/15 02:20:28;;;;;;;13.63;5.30;;;;;;;16.53;100.00;101118.72;2618032;47;20411;-44
2021/08/15 02:22:58;;;;;;;15.87;5.47;;;;;;;16.56;100.00;101103.16;2618649;46;20403;-47
2021/08/15 02:25:28;;;;;;;13.50;5.30;;;;;;;16.40;100.00;101107.16;2619256;36;20771;-48
2021/08/15 02:27:57;;;;;;;19.03;6.33;;;;;;;16.42;100.00;101121.06;2618396;46;20392;-47
2021/08/15 02:30:30;;;;;;;13.50;6.20;;;;;;;16.41;100.00;101124.53;2617795;46;20408;-47
2021/08/15 02:32:59;;;;;;;21.97;5.90;;;;;;;16.40;100.00;101127.97;2618396;47;20384;-46
2021/08/15 02:35:31;;;;;;;17.00;5.73;;;;;;;16.48;100.00;101116.00;2621218;36;20439;-47
2021/08/15 02:38:02;;;;;;;19.13;7.07;;;;;;;16.42;100.00;101121.06;2619546;47;20418;-47
2021/08/15 02:40:31;;;;;;;15.57;6.70;;;;;;;16.32;100.00;101120.84;2624722;36;20753;-49
2021/08/15 02:43:01;;;;;;;13.20;5.67;;;;;;;16.23;100.00;101127.53;2619579;47;20477;-47
2021/08/15 02:45:33;;;;;;;13.70;6.60;;;;;;;16.25;100.00;101121.53;2617676;46;20412;-48
2021/08/15 02:48:02;;;;;;;15.20;6.10;;;;;;;16.22;100.00;101139.69;2619619;47;20408;-46
2021/08/15 02:50:32;;;;;;;21.67;6.60;;;;;;;16.45;100.00;101134.16;2617843;47;20434;-50
2021/08/15 02:53:01;;;;;;;13.57;5.70;;;;;;;16.37;100.00;101117.47;2619567;47;20397;-47
2021/08/15 02:55:31;;;;;;;15.70;6.80;;;;;;;16.31;100.00;101124.28;2617564;46;20400;-48
2021/08/15 02:58:00;;;;;;;13.40;6.10;;;;;;;16.23;100.00;101131.03;2618309;47;20408;-46
2021/08/15 03:00:33;;;;;;;21.00;7.57;;;;;;;16.27;100.00;101129.38;2619566;36;20436;-46
2021/08/15 03:03:02;;;;;;;18.08;6.22;;;;;;;16.12;100.00;101142.91;2619806;46;20159;-46
2021/08/15 03:05:32;;;;;;;16.70;6.80;;;;;;;16.28;100.00;101134.66;2617556;47;20159;-50
2021/08/15 03:08:01;;;;;;;26.07;8.10;;;;;;;16.13;100.00;101147.25;2619736;47;20393;-49
2021/08/15 03:10:32;;;;;;;15.33;6.83;;;;;;;16.04;100.00;101155.72;2621149;36;20474;-46
2021/08/15 03:13:05;;;;;;;20.53;8.50;;;;;;;15.98;100.00;101156.44;2619686;46;20420;-45
2021/08/15 03:15:40;;;;;;;19.77;8.40;;;;;;;16.05;100.00;101167.91;2617707;46;20451;-45
2021/08/15 03:18:12;;;;;;;14.83;7.30;;;;;;;15.86;100.00;101171.72;2619593;47;20515;-45
2021/08/15 03:20:42;;;;;;;20.50;7.87;;;;;;;15.84;100.00;101178.59;2640818;36;20503;-48
2021/08/15 03:23:11;;;;;;;14.53;7.47;;;;;;;15.76;100.00;101176.69;2619590;47;20407;-50
2021/08/15 03:25:42;;;;;;;21.47;9.00;;;;;;;15.71;100.00;101187.78;2636186;36;21494;-49
2021/08/15 03:28:11;;;;;;;17.73;8.93;;;;;;;15.69;100.00;101185.13;2619157;47;20408;-48
2021/08/15 03:30:43;;;;;;;21.27;9.53;;;;;;;15.72;100.00;101187.81;2619608;36;20925;-50
2021/08/15 03:33:13;;;;;;;18.40;8.03;;;;;;;15.75;100.00;101200.03;2618432;47;20403;-47
2021/08/15 03:35:42;;;;;;;23.00;8.70;;;;;;;15.59;100.00;101196.13;2635234;36;21243;-48
2021/08/15 03:38:12;;;;;;;17.50;8.60;;;;;;;15.51;100.00;101195.91;2618254;47;20439;-48
2021/08/15 03:40:41;;;;;;;18.63;9.00;;;;;;;15.51;100.00;101196.81;2619854;36;20427;-47
2021/08/15 03:43:11;;;;;;;26.98;8.93;;;;;;;15.48;100.00;101194.09;2619172;47;20407;-45
2021/08/15 03:45:40;;;;;;;21.57;10.00;;;;;;;15.43;100.00;101187.88;2630499;36;20527;-47
2021/08/15 03:48:12;;;;;;;14.30;9.40;;;;;;;15.44;100.00;101188.78;2619572;46;20492;-49
2021/08/15 03:50:42;;;;;;;19.83;9.90;;;;;;;15.40;100.00;101198.22;2619722;36;20434;-46
2021/08/15 03:53:11;;;;;;;24.73;9.67;;;;;;;15.53;100.00;101192.53;2619481;47;20387;-48
2021/08/15 03:55:41;;;;;;;13.20;8.10;;;;;;;15.50;100.00;101200.22;2622859;36;20430;-50
2021/08/15 03:58:11;;;;;;;16.17;8.97;;;;;;;15.53;100.00;101195.13;2619351;46;20412;-45
2021/08/15 04:00:43;;;;;;;16.37;9.60;;;;;;;15.58;100.00;101200.44;2624296;36;20437;-47
2021/08/15 04:03:16;;;;;;;19.27;9.03;;;;;;;15.49;100.00;101208.84;2619493;47;20502;-48
2021/08/15 04:05:45;;;;;;;16.57;9.17;;;;;;;15.54;100.00;101196.00;2618536;36;20453;-47
2021/08/15 04:08:14;;;;;;;19.03;8.97;;;;;;;15.61;100.00;101195.34;2619393;47;20408;-48
2021/08/15 04:10:44;;;;;;;20.03;9.60;;;;;;;15.67;100.00;101194.63;2618408;47;20889;-47
2021/08/15 04:13:13;;;;;;;17.67;9.40;;;;;;;15.60;100.00;101184.88;2619372;47;20386;-47
2021/08/15 04:15:43;;;;;;;14.67;8.57;;;;;;;15.49;100.00;101177.66;2620082;36;20442;-45
2021/08/15 04:18:15;;;;;;;21.92;9.45;;;;;;;15.58;100.00;101182.22;2619284;47;20416;-46
2021/08/15 04:20:44;;;;;;;19.80;9.10;;;;;;;15.65;100.00;101183.31;2618907;39;20512;-47
2021/08/15 04:23:14;;;;;;;24.77;9.77;;;;;;;15.56;100.00;101188.22;2619238;47;20400;-47
2021/08/15 04:25:45;;;;;;;20.80;10.50;;;;;;;15.58;100.00;101182.22;2619062;36;20438;-46
2021/08/15 04:28:15;;;;;;;19.57;10.03;;;;;;;15.63;100.00;101190.16;2619496;47;20389;-47
2021/08/15 04:30:44;;;;;;;20.43;10.20;;;;;;;15.64;100.00;101189.34;2619312;36;20438;-49
2021/08/15 04:33:18;;;;;;;20.17;9.70;;;;;;;15.72;100.00;101194.75;2619890;39;20693;-48
2021/08/15 04:35:47;;;;;;;16.90;10.10;;;;;;;15.76;100.00;101181.00;2621985;36;20458;-47
2021/08/15 04:38:17;;;;;;;22.30;11.10;;;;;;;15.74;100.00;101177.47;2619187;47;20408;-49
2021/08/15 04:40:46;;;;;;;20.07;9.90;;;;;;;15.75;100.00;101180.09;2622965;36;20435;-46
2021/08/15 04:43:16;;;;;;;21.70;10.30;;;;;;;15.73;100.00;101166.19;2619114;47;20434;-50
2021/08/15 04:45:46;;;;;;;21.05;10.23;;;;;;;15.77;100.00;101168.03;2620216;36;20929;-47
2021/08/15 04:48:19;;;;;;;16.85;9.98;;;;;;;15.79;100.00;101171.53;2619193;47;20606;-47
2021/08/15 04:50:48;;;;;;;16.90;10.40;;;;;;;15.72;100.00;101164.41;2635734;36;20202;-47
2021/08/15 04:53:18;;;;;;;19.37;9.47;;;;;;;15.63;100.00;101169.34;2619049;47;20413;-47
2021/08/15 04:55:47;;;;;;;12.77;9.05;;;;;;;15.62;100.00;101171.09;2624342;36;20424;-45
2021/08/15 04:58:17;;;;;;;12.45;7.20;;;;;;;15.67;100.00;101168.59;2618625;47;20147;-49
2021/08/15 05:00:46;;;;;;;17.48;8.27;;;;;;;15.68;100.00;101170.38;2623590;36;20191;-45
2021/08/15 05:03:20;;;;;;;12.90;7.60;;;;;;;15.67;100.00;101166.00;2619657;46;20136;-48
2021/08/15 05:05:49;;;;;;;14.07;6.87;;;;;;;15.65;100.00;101162.50;2623849;36;20242;-46
2021/08/15 05:08:19;;;;;;;15.57;8.57;;;;;;;15.63;100.00;101164.16;2619961;47;20399;-46
2021/08/15 05:10:49;;;;;;;10.67;6.50;;;;;;;15.55;100.00;101165.66;2620633;36;20859;-46
2021/08/15 05:13:18;;;;;;;10.37;6.30;;;;;;;15.60;100.00;101171.88;2618634;47;20877;-49
2021/08/15 05:15:48;;;;;;;15.30;8.57;;;;;;;15.60;100.00;101170.19;2624034;36;20454;-50
2021/08/15 05:18:20;;;;;;;14.13;8.07;;;;;;;15.58;100.00;101177.03;2619906;47;20880;-45
2021/08/15 05:20:49;;;;;;;13.37;6.83;;;;;;;15.63;100.00;101179.75;2619000;46;20431;-49
2021/08/15 05:23:19;;;;;;;14.50;7.50;;;;;;;15.70;100.00;101171.31;2620503;39;20714;-48
2021/08/15 05:25:49;;;;;;;11.83;7.50;;;;;;;15.51;100.00;101170.81;2618947;54;21024;-45
2021/08/15 05:28:18;;;;;;;8.25;5.88;;;;;;;15.55;100.00;101176.06;2620045;46;20423;-49
2021/08/15 05:30:48;;;;;;;7.90;6.00;;;;;;;15.49;100.00;101177.66;2630462;36;20191;-47
2021/08/15 05:33:20;;;;;;;10.00;6.80;;;;;;;15.63;100.00;101174.56;2619942;47;20424;-48
2021/08/15 05:35:49;;;;;;;10.05;6.32;;;;;;;15.78;100.00;101169.78;2638877;36;20195;-47
2021/08/15 05:38:19;;;;;;;9.43;6.70;;;;;;;15.84;100.00;101170.78;2618581;46;20147;-46
2021/08/15 05:40:48;;;;;;;10.70;6.53;;;;;;;15.79;100.00;101166.34;2636312;36;21943;-47
2021/08/15 05:43:18;;;;;;;14.77;9.00;;;;;;;15.76;100.00;101161.06;2618486;46;20402;-48
2021/08/15 05:45:47;;;;;;;13.20;6.60;;;;;;;15.78;100.00;101158.47;2636387;36;20442;-47
2021/08/15 05:48:20;;;;;;;14.27;7.17;;;;;;;15.94;100.00;101159.81;2618571;46;20395;-47
2021/08/15 05:50:49;;;;;;;9.77;5.78;;;;;;;15.88;100.00;101155.31;2617910;47;20428;-50
2021/08/15 05:53:19;;;;;;;11.83;6.53;;;;;;;16.06;100.00;101147.09;2619063;39;20476;-48
2021/08/15 05:55:48;;;;;;;10.87;5.73;;;;;;;15.98;100.00;101145.16;2618448;36;20505;-49
2021/08/15 05:58:18;;;;;;;11.23;6.80;;;;;;;15.88;100.00;101142.28;2618326;47;20870;-49
2021/08/15 06:00:50;;;;;;;12.77;6.13;;;;;;;15.90;100.00;101152.75;2618028;46;20450;-46
2021/08/15 06:03:22;;;;;;;20.10;10.77;;;;;;;15.84;100.00;101153.44;2618896;39;20498;-46
2021/08/15 06:05:52;;;;;;;9.90;5.83;;;;;;;15.93;100.00;101143.34;2617464;46;20423;-46
2021/08/15 06:08:21;;;;;;;16.93;8.37;;;;;;;15.87;100.00;101144.84;2618401;47;20415;-46
2021/08/15 06:10:51;;;;;;;14.10;9.40;;;;;;;15.86;100.00;101162.19;2639974;36;20454;-47
2021/08/15 06:13:21;;;;;;;18.20;9.83;;;;;;;15.89;100.00;101158.78;2618829;39;20744;-46
2021/08/15 06:15:50;;;;;;;18.10;9.77;;;;;;;16.04;100.00;101160.91;2622052;36;20867;-48
2021/08/15 06:18:22;;;;;;;49.40;29.73;;;;;;;16.09;100.00;101153.25;2619324;46;20413;-48
2021/08/15 06:20:52;;;;;;;36.80;18.63;;;;;;;16.09;100.00;101154.13;2625358;36;20475;-48
2021/08/15 06:23:21;;;;;;;28.77;17.33;;;;;;;16.16;100.00;101144.75;2619398;47;20909;-50
2021/08/15 06:25:51;;;;;;;18.90;8.33;;;;;;;16.12;100.00;101132.50;2622505;36;20771;-47
2021/08/15 06:28:20;;;;;;;17.30;10.87;;;;;;;16.24;100.00;101135.41;2619977;39;20761;-47
2021/08/15 06:30:50;;;;;;;34.23;21.00;;;;;;;16.16;100.00;101135.19;2618958;46;20439;-47
2021/08/15 06:33:19;;;;;;;18.20;10.30;;;;;;;16.15;100.00;101122.16;2619557;46;20444;-47
2021/08/15 06:35:51;;;;;;;16.07;7.53;;;;;;;16.15;100.00;101125.63;2619518;36;20436;-48
2021/08/15 06:38:21;;;;;;;17.90;9.63;;;;;;;15.95;100.00;101119.97;2618522;47;20392;-49
2021/08/15 06:40:50;;;;;;;15.90;6.57;;;;;;;15.99;100.00;101126.13;2619259;36;20471;-48
2021/08/15 06:43:20;;;;;;;11.45;7.47;;;;;;;15.95;100.00;101117.34;2619613;46;20400;-48
2021/08/15 06:45:49;;;;;;;12.67;8.13;;;;;;;15.98;100.00;101113.91;2617792;46;20194;-47
2021/08/15 06:48:19;;;;;;;12.23;6.10;;;;;;;15.97;100.00;101115.66;2619345;47;20420;-45
2021/08/15 06:50:53;;;;;;;12.67;7.00;;;;;;;15.97;100.00;101127.78;2620825;36;20201;-48
2021/08/15 06:53:24;;;;;;;26.67;15.03;;;;;;;15.93;100.00;101129.44;2619022;47;20391;-46
2021/08/15 06:55:53;;;;;;;11.60;6.33;;;;;;;16.00;100.00;101130.47;2620057;36;20422;-44
2021/08/15 06:58:22;;;;;;;12.07;6.33;;;;;;;15.90;100.00;101137.13;2619365;47;20400;-49
2021/08/15 07:00:52;;;;;;;16.20;7.37;;;;;;;15.89;100.00;101140.59;2619265;36;20471;-47
2021/08/15 07:03:22;;;;;;;16.67;7.00;;;;;;;16.01;100.00;101143.50;2619009;46;20528;-47
2021/08/15 07:05:54;;;;;;;15.83;8.90;;;;;;;16.15;100.00;101143.00;2626799;36;20438;-50
2021/08/15 07:08:24;;;;;;;18.70;9.07;;;;;;;16.29;100.00;101141.59;2618864;46;20412;-47
2021/08/15 07:10:54;;;;;;;15.27;8.10;;;;;;;16.21;100.00;101137.94;2620336;36;20963;-47
2021/08/15 07:13:24;;;;;;;16.23;7.40;;;;;;;16.22;100.00;101134.50;2620301;31;20845;-47
2021/08/15 07:15:55;;;;;;;10.53;6.63;;;;;;;16.20;100.00;101130.94;2623741;36;20462;-47
2021/08/15 07:18:24;;;;;;;12.57;7.20;;;;;;;16.16;100.00;101132.59;2619432;47;20424;-46
2021/08/15 07:20:59;;;;;;;12.70;6.87;;;;;;;15.97;100.00;101148.59;2621109;36;20222;-47
2021/08/15 07:23:29;;;;;;;17.40;7.63;;;;;;;15.99;100.00;101157.34;2619540;47;20419;-48
2021/08/15 07:25:58;;;;;;;12.80;6.97;;;;;;;16.11;100.00;101152.44;2621265;36;20772;-47
2021/08/15 07:28:28;;;;;;;14.30;6.60;;;;;;;16.15;100.00;101149.06;2619344;47;20419;-46
2021/08/15 07:30:57;;;;;;;20.70;10.53;;;;;;;16.09;100.00;101148.91;2626997;36;20459;-47
2021/08/15 07:33:27;;;;;;;8.83;6.60;;;;;;;16.17;100.00;101152.59;2618404;46;20411;-46
2021/08/15 07:35:59;;;;;;;14.00;5.70;;;;;;;16.04;100.00;101146.19;2624775;36;20428;-47
2021/08/15 07:38:28;;;;;;;12.10;6.22;;;;;;;16.16;100.00;101155.16;2619423;47;20416;-46
2021/08/15 07:40:58;;;;;;;10.83;6.23;;;;;;;16.36;100.00;101155.63;2618696;47;20190;-50
2021/08/15 07:43:27;;;;;;;12.05;6.55;;;;;;;16.26;100.00;101151.06;2619422;46;20395;-48
2021/08/15 07:45:57;;;;;;;11.77;6.38;;;;;;;16.40;100.00;101138.38;2636651;36;20194;-49
2021/08/15 07:48:26;;;;;;;12.03;6.30;;;;;;;16.43;100.00;101123.72;2618176;46;20155;-48
2021/08/15 07:50:58;;;;;;;15.07;6.40;;;;;;;16.75;100.00;101114.84;2623302;36;20483;-46
2021/08/15 07:53:30;;;;;;;14.30;7.57;;;;;;;16.73;100.00;101109.59;2618147;47;20400;-48
2021/08/15 07:55:59;;;;;;;9.57;6.10;;;;;;;16.49;100.00;101111.66;2628567;36;20205;-47
2021/08/15 07:58:29;;;;;;;13.10;7.73;;;;;;;16.31;100.00;101118.22;2618212;47;20400;-49
2021/08/15 08:00:58;;;;;;;14.30;9.20;;;;;;;16.37;100.00;101123.56;2639932;36;20459;-46
2021/08/15 08:03:28;;;;;;;14.23;6.40;;;;;;;16.40;100.00;101117.56;2618136;47;20392;-49
2021/08/15 08:06:00;;;;;;;9.47;5.27;;;;;;;16.45;100.00;101111.59;2622428;36;20436;-49
2021/08/15 08:08:30;;;;;;;9.77;6.97;;;;;;;16.47;100.00;101120.31;2617946;47;20428;-47
2021/08/15 08:11:00;;;;;;;12.87;6.57;;;;;;;16.55;100.00;101112.69;2623198;36;20546;-47
2021/08/15 08:13:29;;;;;;;12.02;7.07;;;;;;;16.39;100.00;101128.78;2619124;47;20447;-48
2021/08/15 08:15:59;;;;;;;7.90;5.50;;;;;;;16.35;100.00;101125.25;2618476;47;20163;-45
2021/08/15 08:18:29;;;;;;;6.50;4.60;;;;;;;16.25;100.00;101128.47;2619350;54;20927;-50
2021/08/15 08:21:01;;;;;;;8.13;5.70;;;;;;;16.24;100.00;101126.72;2617670;47;20424;-49
2021/08/15 08:23:30;;;;;;;9.03;6.20;;;;;;;16.17;100.00;101130.88;2619177;47;20889;-47
2021/08/15 08:26:00;;;;;;;11.27;7.07;;;;;;;16.11;100.00;101142.03;2618837;36;20447;-46
2021/08/15 08:28:29;;;;;;;8.50;5.50;;;;;;;16.19;100.00;101137.91;2619385;47;20402;-48
2021/08/15 08:30:59;;;;;;;23.15;11.05;;;;;;;16.30;100.00;101132.06;2618850;47;20435;-48
2021/08/15 08:33:28;;;;;;;9.23;6.13;;;;;;;16.26;100.00;101136.31;2620298;46;20147;-46
2021/08/15 08:36:00;;;;;;;13.60;8.60;;;;;;;16.25;100.00;101126.75;2620725;36;20926;-47
2021/08/15 08:38:30;;;;;;;35.70;18.60;;;;;;;16.23;100.00;101123.22;2619880;46;20396;-45
2021/08/15 08:41:01;;;;;;;15.95;9.68;;;;;;;16.32;100.00;101119.97;2627854;36;20484;-47
2021/08/15 08:43:31;;;;;;;8.17;5.50;;;;;;;16.38;100.00;101116.63;2619151;47;20637;-48
2021/08/15 08:46:00;;;;;;;12.30;6.47;;;;;;;16.54;100.00;101116.16;2620971;36;20471;-45
2021/08/15 08:48:31;;;;;;;9.70;5.77;;;;;;;16.63;100.00;101096.34;2618694;46;20439;-47
2021/08/15 08:51:03;;;;;;;20.37;11.73;;;;;;;16.49;100.00;101099.53;2619828;36;20473;-49
2021/08/15 08:53:35;;;;;;;12.33;7.50;;;;;;;16.53;100.00;101087.44;2618719;46;20404;-46
2021/08/15 08:56:05;;;;;;;13.67;7.63;;;;;;;16.57;100.00;101077.13;2620529;36;20454;-48
2021/08/15 08:58:34;;;;;;;8.87;5.30;;;;;;;16.72;100.00;101076.59;2619645;39;20749;-47
2021/08/15 09:01:04;;;;;;;9.43;5.40;;;;;;;16.55;100.00;101076.22;2640113;36;20530;-47
2021/08/15 09:03:34;;;;;;;14.07;7.43;;;;;;;16.55;100.00;101073.63;2618448;47;20431;-48
2021/08/15 09:06:20;;;;;;;9.35;4.85;;;;;;;16.67;100.00;101065.19;2642070;36;20454;-46
2021/08/15 09:08:50;;;;;;;7.35;5.15;;;;;;;16.72;100.00;101066.16;2619514;47;20162;-50
2021/08/15 09:11:21;;;;;;;13.80;6.40;;;;;;;16.67;100.00;101064.31;2636122;36;21909;-44
2021/08/15 09:14:02;;;;;;;10.87;6.17;;;;;;;16.83;100.00;101069.00;2618218;47;20428;-48
2021/08/15 09:16:55;;;;;;;7.60;4.30;;;;;;;16.77;100.00;101071.47;2636005;36;20444;-47
2021/08/15 09:19:30;;;;;;;9.48;6.03;;;;;;;16.67;100.00;101064.31;2632904;36;20427;-46
2021/08/15 09:22:13;;;;;;;8.07;4.00;;;;;;;16.77;100.00;101054.97;2618398;47;20182;-49
2021/08/15 09:24:51;;;;;;;6.80;4.33;;;;;;;16.82;100.00;101050.75;2634779;36;20546;-45
2021/08/15 09:27:26;;;;;;;6.90;4.83;;;;;;;16.92;100.00;101057.88;2618997;46;20433;-47
2021/08/15 09:30:15;;;;;;;11.50;7.10;;;;;;;16.83;100.00;101057.72;2619061;46;20432;-44
2021/08/15 09:32:47;;;;;;;14.80;10.17;;;;;;;16.82;100.00;101053.34;2619669;46;20455;-46
2021/08/15 09:35:24;;;;;;;17.20;10.47;;;;;;;16.68;100.00;101060.88;2618717;47;20439;-45
2021/08/15 09:38:07;;;;;;;19.50;10.33;;;;;;;16.77;100.00;101065.41;2619674;46;20423;-48
2021/08/15 09:40:39;;;;;;;24.00;11.33;;;;;;;16.80;100.00;101066.34;2625395;36;20460;-46
2021/08/15 09:43:10;;;;;;;24.33;12.77;;;;;;;16.81;100.00;101057.66;2619671;46;20435;-47
2021/08/15 09:45:50;;;;;;;27.57;13.70;;;;;;;16.83;100.00;101045.53;2618367;47;20432;-48
2021/08/15 09:48:25;;;;;;;26.70;15.83;;;;;;;16.90;100.00;101045.66;2619730;46;20412;-47
2021/08/15 09:51:10;;;;;;;24.57;15.70;;;;;;;17.06;100.00;101042.56;2631837;36;20478;-47
2021/08/15 09:53:44;;;;;;;30.77;16.33;;;;;;;17.06;100.00;101052.09;2619465;46;20419;-48
2021/08/15 09:56:16;;;;;;;30.80;17.10;;;;;;;17.05;100.00;101033.00;2636919;36;20439;-48
2021/08/15 09:58:46;;;;;;;32.53;17.10;;;;;;;17.28;100.00;101027.34;2619600;46;20416;-49
2021/08/15 10:01:16;;;;;;;29.95;17.73;;;;;;;17.22;100.00;101028.09;2622049;36;20213;-50
2021/08/15 10:03:49;;;;;;;31.48;17.33;;;;;;;17.37;100.00;101021.38;2619710;47;20147;-45
2021/08/15 10:06:18;;;;;;;31.27;16.60;;;;;;;17.50;100.00;101033.81;2621617;36;20514;-48
2021/08/15 10:08:51;;;;;;;34.43;18.93;;;;;;;17.43;100.00;101028.47;2619705;46;20446;-48
2021/08/15 10:11:20;;;;;;;26.53;16.30;;;;;;;17.41;100.00;101016.28;2620355;36;20478;-48
2021/08/15 10:13:49;;;;;;;33.40;16.90;;;;;;;17.44;100.00;101018.06;2636337;36;20404;-47
2021/08/15 10:16:19;;;;;;;37.72;21.52;;;;;;;17.50;100.00;101012.06;2619444;31;20408;-47
2021/08/15 10:18:52;;;;;;;30.50;17.03;;;;;;;17.37;100.00;101011.84;2619651;36;20159;-52
2021/08/15 10:21:23;;;;;;;29.53;17.33;;;;;;;17.70;100.00;101019.34;2619689;47;20428;-48
2021/08/15 10:24:08;;;;;;;30.45;16.05;;;;;;;17.73;100.00;101019.41;2619965;39;20767;-47
2021/08/15 10:26:42;;;;;;;32.57;16.10;;;;;;;17.71;100.00;101011.53;2621424;36;20538;-47
2021/08/15 10:29:41;;;;;;;29.10;15.60;;;;;;;17.52;100.00;101010.34;2631063;36;20790;-47
2021/08/15 10:32:18;;;;;;;45.53;23.60;;;;;;;17.47;100.00;101001.56;2619771;39;20484;-48
2021/08/15 10:35:20;;;;;;;36.70;16.70;;;;;;;17.64;100.00;101007.09;2643193;36;20443;-48
2021/08/15 10:37:54;;;;;;;35.97;20.92;;;;;;;17.50;100.00;100999.03;2619409;47;20407;-47
2021/08/15 10:40:57;;;;;;;31.43;17.27;;;;;;;17.62;100.00;100993.13;2640845;36;20546;-47
2021/08/15 10:44:02;;;;;;;33.17;16.20;;;;;;;17.61;100.00;100997.47;2619560;47;20418;-48
2021/08/15 10:46:32;;;;;;;30.30;17.13;;;;;;;17.61;100.00;100989.66;2619995;36;20908;-46
2021/08/15 10:49:03;;;;;;;38.43;20.80;;;;;;;17.68;100.00;100986.28;2620478;36;20400;-51
2021/08/15 10:51:56;;;;;;;41.05;20.23;;;;;;;17.87;100.00;100981.34;2619605;46;20435;-46
2021/08/15 10:54:59;;;;;;;35.47;20.90;;;;;;;18.03;100.00;100986.78;2642514;36;20511;-47
2021/08/15 10:57:48;;;;;;;31.77;18.20;;;;;;;18.06;100.00;100981.66;2619328;46;20451;-47
2021/08/15 11:00:43;;;;;;;35.60;18.20;;;;;;;18.05;100.00;100969.44;2639099;36;20538;-46
2021/08/15 11:03:48;;;;;;;37.47;20.03;;;;;;;18.25;100.00;100961.03;2619100;46;20500;-46
2021/08/15 11:06:45;;;;;;;32.20;17.23;;;;;;;18.44;100.00;100959.50;2636117;36;20479;-50
2021/08/15 11:09:15;;;;;;;35.20;20.43;;;;;;;18.21;100.00;100952.28;2636104;36;25662;-47
2021/08/15 11:12:07;;;;;;;30.33;16.07;;;;;;;18.59;100.00;100950.97;2618215;46;20455;-46
2021/08/15 11:14:36;;;;;;;40.10;19.80;;;;;;;19.16;100.00;100940.28;2639786;36;20781;-45
2021/08/15 11:17:16;;;;;;;35.10;18.13;;;;;;;18.97;100.00;100939.22;2617711;47;20541;-47
2021/08/15 11:19:46;;;;;;;27.77;16.03;;;;;;;18.97;100.00;100932.22;2617588;47;20419;-50
2021/08/15 11:22:19;;;;;;;30.20;15.20;;;;;;;18.99;100.00;100929.63;2618130;47;20445;-46
2021/08/15 11:24:54;;;;;;;33.63;15.17;;;;;;;19.55;100.00;100915.28;2620110;36;20968;-48
2021/08/15 11:27:35;;;;;;;24.77;13.33;;;;;;;19.66;100.00;100914.50;2617868;47;20435;-46
2021/08/15 11:30:18;;;;;;;32.78;18.90;;;;;;;19.59;100.00;100908.38;2617509;47;20416;-50